Airports Isle of Man Isle of Man Airport

Isle of Man Airport (EGNS / IOM)

Facts about Isle of Man Airport

Name Isle of Man Airport
City Isle Of Man
Country Isle of Man
ICAO code EGNS
IATA code IOM
Elevation 15.8496 meters (52 feet)

Weather

METAR

Metar data retrieved Saturday, 20 July 2024 at 00:25 UTC (3 minutes ago)

EGNS 192350Z 21015KT 9999 FEW010 15/14 Q1009

Live traffic

Navigraph Charts (account required)